Hovedside
METAR-TAF:

METAR-TAF

Lufthavner :

Riga internasjonale lufthavn

Riga, Latvia

breddegrad: 56-55N, lengdegrad: 023-58E, høyde over havet: 10 m

Gjeldene værobservasjon

Denne rapporten ble laget for 23 minutter siden, klokken 10:20 UTC
Vind 7 kt fra Sørvest, skiftende mellom Sør og Vest-nordvest
Temperatur 15°C
Luftfuktighet 55%
Trykk 1023 hPa
Sikt 10 km eller mer
Spredte skyer i en høyde av 3500 ft

METAR: EVRA 201020Z 22007KT 180V300 9999 SCT035 15/06 Q1023 NOSIG

Tid: 13:43 (10:43 UTC)

Varsel

Denne rapporten ble laget for 2 timer og 43 minutter siden, klokken 08:00 UTC
Varsel gyldig fra 20. klokken 09 UTC til 21. klokken 09 UTC
Vind 5 kt fra Vest
Sikt 10 km eller mer
ingen skyer under 1500 m og ingen bygeskyer
Midlertidig
fra 21. klokken 00 UTC til 21. klokken 06 UTC
Sikt: 0500 m
i en høyde av 100 ft
tåke

TAF: EVRA 200800Z 2009/2109 26005KT CAVOK TEMPO 2100/2106 0500 FG VV001

Værobservasjoner og værvarsel for over 4000 flyplasser (METAR- og TAF-rapporter).

Tilgjengelige stasjoner er representert av de røde og gule prikkene på kartet.

Hold musepekeren over prikken for å se navnet på stasjonen.

Klikk så for å se værobservasjoner og -varsler.

For å forandre kartet kan du klikke på den grønne knappen med svart kryss for å zoome inn, på den grønne knappen med strek for å zoome ut, eller på de grønne pilene for å se tilstøtende kart.


METAR-TAF: